aviador You're here:

SGES Decoded Metar

GUARANY in PARAGUAY
Report Time2018-02-22 08:00:00
UTC Time2018-02-22 08:28:04
Flight Rules vfr VFR
Wind240° at 03 kt
W.Decomp.*RWY 23: 2.7 kt HW 1.3 kt RCW
W.Rank240° ranks 22
Current wind is below 240° avg. (8.1)
Visibility9000 m
Phenomena:N/A
Clouds:N/A
CeilingNone
Temp18°C (ISA +9)
Dew Point18°C (100% RH)
QNH1012 hPa
Density Alt4,104 ft
Elevation2,785 ft
Report Wrong Elevation
Raw Report
SGES 220800Z 24003KT 9000 NSC 18/18 Q1012=

Extra information for SGES:More info

Metar Taf Metar & Taf Last 4 Metars F.Rules Stats Wind Profile Meteogram Temp Stats Airport Information Weather charts Add Link Nearby VenuesMetar ALERT Operation Metar Decoded Social comments